Time;durP1;ratioP1;P1;durP2;ratioP2;P2;SDS_P1;SDS_P2;PMS_P1;PMS_P2;Temp;Humidity;BMP_temperature;BMP_pressure;BME280_temperature;BME280_humidity;BME280_pressure;Samples;Min_cycle;Max_cycle;Signal;HPM_P1;HPM_P2
2022/09/30 04:00:51;;;;;;;13.10;10.90;;;;;;;14.47;100.00;99621.09;5606186;31;77858;-58
2022/09/30 04:03:54;;;;;;;12.93;10.68;;;;;;;14.44;100.00;99621.75;5583471;32;33381;-58
2022/09/30 04:06:56;;;;;;;12.20;10.23;;;;;;;14.50;100.00;99622.34;5583705;32;34210;-58
2022/09/30 04:09:58;;;;;;;11.00;9.48;;;;;;;14.56;100.00;99623.78;5583352;31;33723;-58
2022/09/30 04:13:00;;;;;;;10.93;9.20;;;;;;;14.65;100.00;99626.44;5583723;32;34266;-58
2022/09/30 04:16:04;;;;;;;12.25;8.93;;;;;;;14.59;100.00;99623.12;5583586;31;33361;-58
2022/09/30 04:19:06;;;;;;;12.77;9.45;;;;;;;14.62;100.00;99632.47;5583143;32;34321;-58
2022/09/30 04:22:09;;;;;;;9.85;8.48;;;;;;;14.57;100.00;99631.56;5583347;31;33677;-58
2022/09/30 04:25:11;;;;;;;10.65;9.18;;;;;;;14.63;100.00;99632.16;5583299;32;33546;-58
2022/09/30 04:28:13;;;;;;;11.60;10.07;;;;;;;14.76;100.00;99628.41;5573291;32;33883;-58
2022/09/30 04:31:17;;;;;;;11.80;10.25;;;;;;;14.80;100.00;99626.69;5563732;32;33660;-58
2022/09/30 04:34:20;;;;;;;11.43;10.25;;;;;;;14.76;100.00;99625.72;5563850;32;33555;-58
2022/09/30 04:37:23;;;;;;;11.95;9.93;;;;;;;14.82;100.00;99634.44;5563859;32;33728;-58
2022/09/30 04:40:25;;;;;;;11.50;10.07;;;;;;;14.75;100.00;99632.25;5564652;32;34376;-58
2022/09/30 04:43:28;;;;;;;11.43;10.13;;;;;;;14.79;100.00;99635.09;5572657;32;33730;-58
2022/09/30 04:46:35;;;;;;;15.30;10.70;;;;;;;14.80;100.00;99647.44;5566013;32;33676;-58
2022/09/30 04:49:37;;;;;;;11.65;9.70;;;;;;;14.84;100.00;99647.62;5563747;32;33717;-58
2022/09/30 04:52:43;;;;;;;11.40;10.18;;;;;;;14.82;100.00;99652.53;5563640;32;34335;-58
2022/09/30 04:55:45;;;;;;;12.45;10.40;;;;;;;14.84;100.00;99666.50;5563691;32;33835;-58
2022/09/30 04:58:47;;;;;;;11.88;10.20;;;;;;;14.94;100.00;99672.31;5562979;32;34379;-58
2022/09/30 05:01:49;;;;;;;12.52;10.13;;;;;;;15.00;100.00;99678.31;5568670;32;33708;-58
2022/09/30 05:04:54;;;;;;;11.98;10.68;;;;;;;14.93;100.00;99681.53;5582817;32;33611;-58
2022/09/30 05:08:05;;;;;;;11.12;9.85;;;;;;;14.86;100.00;99681.22;5580417;32;33573;-58
2022/09/30 05:11:12;;;;;;;12.18;9.98;;;;;;;14.92;100.00;99669.12;5570997;32;33882;-58
2022/09/30 05:14:14;;;;;;;13.00;10.27;;;;;;;14.87;100.00;99660.44;5567871;32;33633;-58
2022/09/30 05:17:16;;;;;;;11.75;10.55;;;;;;;14.83;100.00;99665.69;5565176;32;34443;-58
2022/09/30 05:20:19;;;;;;;12.82;10.38;;;;;;;14.92;100.00;99671.84;5569258;32;33481;-58
2022/09/30 05:23:24;;;;;;;12.63;11.23;;;;;;;14.94;100.00;99679.63;5569524;32;33697;-58
2022/09/30 05:26:26;;;;;;;11.57;10.25;;;;;;;14.98;100.00;99672.44;5569617;32;33601;-58
2022/09/30 05:29:29;;;;;;;13.55;11.12;;;;;;;14.99;100.00;99677.50;5568993;32;33664;-58
2022/09/30 05:32:31;;;;;;;12.35;11.02;;;;;;;14.98;100.00;99673.22;5569381;32;34212;-58
2022/09/30 05:35:34;;;;;;;11.90;10.63;;;;;;;14.97;100.00;99679.75;5567169;32;34279;-58
2022/09/30 05:38:36;;;;;;;12.88;10.70;;;;;;;14.91;100.00;99685.66;5565567;32;33456;-58
2022/09/30 05:41:39;;;;;;;12.07;10.73;;;;;;;14.94;100.00;99693.12;5565058;32;33686;-58
2022/09/30 05:44:42;;;;;;;13.57;10.73;;;;;;;15.01;100.00;99690.69;5551258;32;31984;-58
2022/09/30 05:47:50;;;;;;;13.10;10.88;;;;;;;15.04;100.00;99700.84;5567270;32;34360;-58
2022/09/30 05:50:58;;;;;;;13.65;10.85;;;;;;;15.06;100.00;99697.78;5560083;32;34099;-57
2022/09/30 05:54:01;;;;;;;12.37;10.80;;;;;;;15.05;100.00;99702.41;5563150;32;33820;-58
2022/09/30 05:57:03;;;;;;;12.43;9.93;;;;;;;15.14;100.00;99691.56;5562933;32;34188;-58
2022/09/30 06:00:05;;;;;;;12.15;10.63;;;;;;;15.14;100.00;99686.97;5559772;32;33756;-58
2022/09/30 06:03:13;;;;;;;12.20;10.95;;;;;;;15.18;100.00;99689.78;5567209;32;33859;-58
2022/09/30 06:06:16;;;;;;;13.20;10.68;;;;;;;15.20;100.00;99691.06;5566217;32;33104;-58
2022/09/30 06:09:18;;;;;;;12.05;10.73;;;;;;;15.27;100.00;99699.41;5564596;32;33666;-58
2022/09/30 06:12:20;;;;;;;11.70;10.45;;;;;;;15.29;100.00;99688.28;5566337;32;34067;-58
2022/09/30 06:15:22;;;;;;;15.50;10.77;;;;;;;15.23;100.00;99697.69;5563141;32;34445;-58
2022/09/30 06:18:26;;;;;;;12.23;10.57;;;;;;;15.29;100.00;99693.69;5565148;32;33813;-58
2022/09/30 06:21:28;;;;;;;11.98;10.65;;;;;;;15.31;100.00;99693.38;5562603;32;33578;-58
2022/09/30 06:24:30;;;;;;;13.23;10.38;;;;;;;15.28;100.00;99698.28;5565288;32;34912;-58
2022/09/30 06:27:33;;;;;;;16.30;10.90;;;;;;;15.37;100.00;99698.25;5564603;32;34093;-58
2022/09/30 06:30:35;;;;;;;16.70;11.88;;;;;;;15.29;100.00;99688.28;5565290;32;33521;-58
2022/09/30 06:33:37;;;;;;;13.38;11.68;;;;;;;15.32;100.00;99697.63;5566770;32;34271;-58
2022/09/30 06:36:40;;;;;;;15.77;11.70;;;;;;;15.30;100.00;99707.97;5565925;32;33588;-58
2022/09/30 06:39:42;;;;;;;13.07;10.63;;;;;;;15.26;100.00;99711.34;5564569;32;33153;-58
2022/09/30 06:42:44;;;;;;;15.50;10.98;;;;;;;15.24;100.00;99710.09;5564966;32;33320;-58
2022/09/30 06:45:48;;;;;;;16.37;11.60;;;;;;;15.34;100.00;99717.00;5565553;32;34265;-58
2022/09/30 06:48:56;;;;;;;15.98;12.07;;;;;;;15.34;100.00;99711.63;5563389;32;33713;-58
2022/09/30 06:52:13;;;;;;;14.30;11.02;;;;;;;15.31;100.00;99715.75;5567419;32;34198;-58
2022/09/30 06:55:17;;;;;;;15.13;10.73;;;;;;;15.34;100.00;99725.13;5563881;32;33547;-58
2022/09/30 06:58:20;;;;;;;13.52;11.15;;;;;;;15.34;100.00;99733.22;5559710;32;33542;-58
2022/09/30 07:01:23;;;;;;;14.13;11.00;;;;;;;15.34;100.00;99734.00;5566092;32;34499;-58
2022/09/30 07:04:25;;;;;;;13.90;10.75;;;;;;;15.38;100.00;99734.94;5565445;32;34321;-58
2022/09/30 07:07:28;;;;;;;13.43;11.27;;;;;;;15.41;100.00;99738.88;5567026;32;34182;-58
2022/09/30 07:10:30;;;;;;;17.50;11.27;;;;;;;15.43;100.00;99739.34;5565526;32;34291;-58
2022/09/30 07:13:33;;;;;;;14.02;11.93;;;;;;;15.45;100.00;99748.69;5563076;32;33698;-58
2022/09/30 07:16:35;;;;;;;18.60;12.32;;;;;;;15.42;100.00;99759.38;5564229;32;33712;-58
2022/09/30 07:19:38;;;;;;;15.43;12.70;;;;;;;15.37;100.00;99760.34;5565645;32;33291;-58
2022/09/30 07:22:40;;;;;;;14.10;11.82;;;;;;;15.38;100.00;99758.44;5565868;32;33810;-58
2022/09/30 07:25:55;;;;;;;14.75;12.65;;;;;;;15.43;100.00;99760.94;5566417;32;34434;-58
2022/09/30 07:28:58;;;;;;;13.80;11.70;;;;;;;15.47;100.00;99772.69;5564194;32;33554;-58
2022/09/30 07:32:01;;;;;;;15.07;11.88;;;;;;;15.43;100.00;99777.97;5560913;32;34355;-58
2022/09/30 07:35:05;;;;;;;12.37;11.07;;;;;;;15.43;100.00;99775.25;5555001;32;33208;-58
2022/09/30 07:38:07;;;;;;;11.98;9.88;;;;;;;15.47;100.00;99778.88;5565546;32;33605;-58
2022/09/30 07:41:13;;;;;;;13.52;11.27;;;;;;;15.51;100.00;99782.50;5562088;32;33741;-58
2022/09/30 07:44:15;;;;;;;15.50;11.35;;;;;;;15.53;100.00;99782.19;5564358;32;33336;-58
2022/09/30 07:47:19;;;;;;;13.65;12.20;;;;;;;15.48;100.00;99793.97;5563831;32;33714;-58
2022/09/30 07:50:21;;;;;;;12.30;11.00;;;;;;;15.45;100.00;99804.63;5563746;32;33483;-58
2022/09/30 07:53:23;;;;;;;13.35;11.50;;;;;;;15.56;100.00;99794.22;5554677;32;33676;-58
2022/09/30 07:56:27;;;;;;;13.62;12.13;;;;;;;15.60;100.00;99795.19;5562246;32;33857;-58
2022/09/30 07:59:42;;;;;;;;;;;;;;;15.56;100.00;99797.72;5564701;32;33424;-58
2022/09/30 08:02:44;;;;;;;11.52;9.63;;;;;;;15.58;100.00;99803.59;5564375;32;34555;-58
2022/09/30 08:05:47;;;;;;;10.63;9.38;;;;;;;15.62;100.00;99807.22;5562641;32;33200;-58
2022/09/30 08:08:51;;;;;;;11.60;9.50;;;;;;;15.69;100.00;99812.13;5560652;32;34064;-58
2022/09/30 08:11:54;;;;;;;10.65;9.52;;;;;;;15.66;100.00;99805.50;5560745;32;33249;-57
2022/09/30 08:14:56;;;;;;;11.35;9.48;;;;;;;15.73;100.00;99810.37;5563718;32;34231;-58
2022/09/30 08:17:58;;;;;;;10.18;9.18;;;;;;;15.68;100.00;99816.75;5561324;32;34390;-58
2022/09/30 08:21:05;;;;;;;9.93;8.90;;;;;;;15.78;100.00;99831.78;5564785;32;33764;-58
2022/09/30 08:24:08;;;;;;;12.45;10.48;;;;;;;15.78;100.00;99823.69;5564376;32;34352;-58
2022/09/30 08:27:11;;;;;;;11.52;10.02;;;;;;;15.68;100.00;99832.97;5562986;32;33825;-58
2022/09/30 08:30:14;;;;;;;11.82;10.60;;;;;;;15.61;100.00;99829.19;5564356;32;33243;-58
2022/09/30 08:33:16;;;;;;;11.77;10.40;;;;;;;15.65;100.00;99843.59;5563939;32;33682;-58
2022/09/30 08:36:23;;;;;;;11.93;10.73;;;;;;;15.70;100.00;99843.47;5562968;32;34375;-58
2022/09/30 08:39:25;;;;;;;12.82;11.63;;;;;;;15.62;100.00;99853.16;5561278;32;33735;-58
2022/09/30 08:42:56;;;;;;;13.43;12.13;;;;;;;15.66;100.00;99853.28;5564034;32;33629;-58
2022/09/30 08:46:13;;;;;;;12.80;11.52;;;;;;;15.71;100.00;99858.53;5562129;32;33922;-58
2022/09/30 08:49:24;;;;;;;17.08;11.82;;;;;;;15.64;100.00;99861.75;5565088;32;33929;-58
2022/09/30 08:52:40;;;;;;;12.50;11.30;;;;;;;15.65;100.00;99876.81;5568584;32;33773;-58
2022/09/30 08:55:53;;;;;;;12.73;11.40;;;;;;;15.70;100.00;99873.97;5561991;32;34402;-58
2022/09/30 08:59:02;;;;;;;12.88;11.68;;;;;;;15.70;100.00;99876.69;5565385;32;33700;-58
2022/09/30 09:02:23;;;;;;;12.70;11.20;;;;;;;15.74;100.00;99871.41;5565679;32;34333;-58
2022/09/30 09:05:53;;;;;;;14.25;12.75;;;;;;;15.77;100.00;99865.34;5567412;32;33616;-58
2022/09/30 09:09:31;;;;;;;12.77;11.48;;;;;;;15.71;100.00;99875.56;5561321;32;34395;-58
2022/09/30 09:12:56;;;;;;;12.25;10.95;;;;;;;15.77;100.00;99880.78;5565766;32;33616;-58
2022/09/30 09:16:27;;;;;;;11.30;10.20;;;;;;;15.81;100.00;99879.00;5546252;32;33339;-58
2022/09/30 09:19:41;;;;;;;10.57;8.95;;;;;;;15.74;100.00;99891.12;5567472;32;34182;-58
2022/09/30 09:22:45;;;;;;;10.23;9.13;;;;;;;15.87;100.00;99892.00;5565925;32;33656;-58
2022/09/30 09:25:51;;;;;;;9.02;8.10;;;;;;;15.93;100.00;99896.09;5562846;32;33320;-58
2022/09/30 09:28:57;;;;;;;7.80;7.00;;;;;;;15.97;100.00;99898.94;5563334;32;33665;-58
2022/09/30 09:32:02;;;;;;;9.68;7.32;;;;;;;16.10;100.00;99897.09;5559454;32;33685;-58
2022/09/30 09:35:47;;;;;;;13.10;6.78;;;;;;;16.12;100.00;99897.56;5560169;32;33290;-58
2022/09/30 09:39:00;;;;;;;8.27;6.60;;;;;;;16.13;100.00;99904.56;5544011;32;33348;-58
2022/09/30 09:42:30;;;;;;;6.70;6.00;;;;;;;16.20;100.00;99918.34;5564634;32;32090;-58
2022/09/30 09:45:45;;;;;;;6.12;4.95;;;;;;;16.23;100.00;99916.91;5560694;32;33409;-58
2022/09/30 09:48:48;;;;;;;4.65;4.10;;;;;;;16.19;100.00;99922.97;5560497;32;34417;-58
2022/09/30 09:52:11;;;;;;;4.85;3.87;;;;;;;16.11;100.00;99920.31;5561689;32;33727;-58
2022/09/30 09:55:17;;;;;;;4.97;3.33;;;;;;;16.13;100.00;99927.00;5565666;32;33651;-58
2022/09/30 09:58:20;;;;;;;4.62;3.58;;;;;;;16.15;100.00;99932.06;5564170;31;33299;-58
2022/09/30 10:01:31;;;;;;;6.45;4.10;;;;;;;16.16;100.00;99933.66;5560380;32;34418;-58
2022/09/30 10:04:49;;;;;;;6.00;3.87;;;;;;;16.07;100.00;99946.44;5560939;31;31976;-58
2022/09/30 10:08:08;;;;;;;4.32;3.62;;;;;;;16.07;100.00;99935.62;5558815;32;33802;-58
2022/09/30 10:11:26;;;;;;;6.90;4.07;;;;;;;16.06;100.00;99936.72;5566479;32;33704;-58
2022/09/30 10:14:28;;;;;;;4.25;3.80;;;;;;;16.10;100.00;99943.06;5565966;32;34378;-58
2022/09/30 10:17:34;;;;;;;5.60;4.12;;;;;;;16.11;100.00;99936.53;5560527;32;34379;-58
2022/09/30 10:20:36;;;;;;;6.32;4.95;;;;;;;16.07;100.00;99938.31;5562734;32;33757;-58
2022/09/30 10:23:40;;;;;;;5.15;4.00;;;;;;;16.11;100.00;99934.63;5561921;32;33677;-58
2022/09/30 10:26:44;;;;;;;4.75;3.72;;;;;;;16.15;100.00;99943.66;5564875;32;33355;-58
2022/09/30 10:29:50;;;;;;;5.60;3.72;;;;;;;16.20;100.00;99948.09;5551745;32;34083;-58
2022/09/30 10:32:52;;;;;;;5.22;4.28;;;;;;;16.23;100.00;99944.75;5564542;32;35294;-58
2022/09/30 10:35:58;;;;;;;5.30;4.10;;;;;;;16.34;100.00;99959.44;5563855;32;34198;-58
2022/09/30 10:39:06;;;;;;;4.87;3.65;;;;;;;16.32;100.00;99961.69;5563680;31;33593;-57
2022/09/30 10:42:22;;;;;;;4.70;3.42;;;;;;;16.31;100.00;99973.62;5562392;32;34390;-58
2022/09/30 10:45:32;;;;;;;4.87;3.37;;;;;;;16.30;100.00;99969.34;5561012;32;33831;-58
2022/09/30 10:48:37;;;;;;;6.20;4.70;;;;;;;16.33;100.00;99979.53;5562683;32;33276;-58
2022/09/30 10:51:44;;;;;;;4.70;3.40;;;;;;;16.31;100.00;99980.97;5560366;32;34490;-58
2022/09/30 10:54:55;;;;;;;6.47;4.12;;;;;;;16.33;100.00;99978.72;5555407;32;34438;-58
2022/09/30 10:58:22;;;;;;;6.35;4.30;;;;;;;16.40;100.00;99979.00;5558875;32;33756;-57
2022/09/30 11:01:28;;;;;;;6.62;3.97;;;;;;;16.48;100.00;99990.88;5561242;32;33903;-57
2022/09/30 11:04:42;;;;;;;4.62;3.20;;;;;;;16.56;100.00;99981.91;5564674;32;34300;-57
2022/09/30 11:07:47;;;;;;;5.32;3.62;;;;;;;16.62;100.00;99992.22;5562358;32;34323;-57
2022/09/30 11:11:04;;;;;;;5.47;3.72;;;;;;;16.65;100.00;100006.97;5560997;32;33602;-57
2022/09/30 11:14:15;;;;;;;4.82;3.03;;;;;;;16.73;100.00;100014.25;5556218;32;34414;-57
2022/09/30 11:17:33;;;;;;;4.32;2.60;;;;;;;16.74;100.00;100032.06;5563254;32;34289;-57
2022/09/30 11:20:46;;;;;;;3.35;2.25;;;;;;;16.77;100.00;100044.19;5557706;32;33697;-57
2022/09/30 11:23:56;;;;;;;3.22;2.50;;;;;;;16.72;100.00;100052.47;5568155;32;34132;-57
2022/09/30 11:27:30;;;;;;;4.72;2.62;;;;;;;16.75;100.00;100062.66;5565365;31;33395;-57
2022/09/30 11:31:11;;;;;;;3.87;2.40;;;;;;;16.79;100.00;100056.28;5556397;32;34632;-57
2022/09/30 11:34:31;;;;;;;4.78;3.08;;;;;;;16.75;100.00;100068.88;5561305;32;33418;-57
2022/09/30 11:37:52;;;;;;;4.35;2.53;;;;;;;16.73;100.00;100081.13;5565593;32;33752;-57
2022/09/30 11:41:12;;;;;;;1.87;1.60;;;;;;;16.72;100.00;100074.94;5563329;32;32298;-57
2022/09/30 11:44:26;;;;;;;3.10;1.83;;;;;;;16.64;100.00;100075.75;5557487;32;34491;-57
2022/09/30 11:48:01;;;;;;;2.83;2.30;;;;;;;16.68;100.00;100093.72;5566719;32;33730;-57
2022/09/30 11:51:16;;;;;;;3.75;2.17;;;;;;;16.66;100.00;100089.78;5559486;32;34105;-57
2022/09/30 11:54:33;;;;;;;3.25;1.98;;;;;;;16.60;100.00;100091.87;5565048;32;33612;-57
2022/09/30 11:58:08;;;;;;;2.12;1.58;;;;;;;16.62;100.00;100107.75;5566981;32;33714;-57
2022/09/30 12:01:39;;;;;;;3.03;1.90;;;;;;;16.66;100.00;100116.84;5548047;32;34366;-57
2022/09/30 12:04:44;;;;;;;3.00;2.47;;;;;;;16.65;100.00;100115.22;5547581;32;33755;-57
2022/09/30 12:07:56;;;;;;;4.05;2.58;;;;;;;16.68;100.00;100120.78;5548406;32;34384;-57
2022/09/30 12:11:09;;;;;;;3.10;2.00;;;;;;;16.76;100.00;100113.00;5547333;32;34549;-57
2022/09/30 12:14:22;;;;;;;2.30;1.35;;;;;;;16.91;100.00;100112.41;5546970;32;33978;-57
2022/09/30 12:17:31;;;;;;;1.98;1.30;;;;;;;16.98;100.00;100128.91;5547889;32;33378;-57
2022/09/30 12:20:38;;;;;;;1.20;1.10;;;;;;;17.01;99.94;100132.88;5557183;32;34254;-57
2022/09/30 12:24:18;;;;;;;1.55;1.45;;;;;;;17.01;98.10;100143.72;5569175;32;32832;-57
2022/09/30 12:27:26;;;;;;;1.33;1.23;;;;;;;17.01;99.39;100136.38;5542350;32;33572;-57
2022/09/30 12:30:29;;;;;;;2.15;1.45;;;;;;;17.10;97.18;100141.75;5549515;32;34231;-57
2022/09/30 12:34:04;;;;;;;3.05;1.30;;;;;;;17.05;96.12;100136.50;5554030;32;34475;-57
2022/09/30 12:37:32;;;;;;;1.65;1.40;;;;;;;17.06;95.11;100147.03;5546217;31;34365;-57
2022/09/30 12:41:02;;;;;;;1.50;1.40;;;;;;;17.11;97.43;100149.53;5568231;32;33853;-57
2022/09/30 12:44:30;;;;;;;1.10;1.00;;;;;;;17.15;96.53;100146.94;5570181;32;34089;-57
2022/09/30 12:47:36;;;;;;;1.30;1.20;;;;;;;17.22;90.50;100139.13;5570506;32;33348;-57
2022/09/30 12:50:51;;;;;;;1.50;1.10;;;;;;;17.22;94.08;100158.09;5569805;32;34476;-57
2022/09/30 12:54:05;;;;;;;1.62;1.40;;;;;;;17.19;93.40;100152.53;5568747;32;33880;-57
2022/09/30 12:57:09;;;;;;;2.28;1.30;;;;;;;17.20;92.19;100170.34;5569935;32;33675;-57
2022/09/30 13:00:23;;;;;;;2.08;1.30;;;;;;;17.26;92.76;100174.47;5568885;32;33865;-57
2022/09/30 13:03:26;;;;;;;1.60;1.50;;;;;;;17.16;92.60;100174.84;5554967;32;33553;-57
2022/09/30 13:06:44;;;;;;;2.50;1.52;;;;;;;17.05;92.42;100177.13;5568767;32;34185;-57
2022/09/30 13:09:59;;;;;;;1.50;1.40;;;;;;;17.03;93.71;100187.53;5570230;32;33775;-57
2022/09/30 13:13:24;;;;;;;2.78;1.92;;;;;;;17.01;92.62;100192.47;5570118;32;34262;-58
2022/09/30 13:17:12;;;;;;;3.30;1.50;;;;;;;16.98;91.36;100180.38;5570080;32;34393;-57
2022/09/30 13:20:48;;;;;;;2.92;1.90;;;;;;;17.02;94.65;100177.78;5563023;31;33481;-57
2022/09/30 13:23:52;;;;;;;2.60;1.75;;;;;;;17.10;94.94;100190.50;5569570;32;34436;-57
2022/09/30 13:27:07;;;;;;;4.03;2.12;;;;;;;17.02;94.92;100194.84;5569787;32;33600;-57
2022/09/30 13:30:12;;;;;;;2.10;1.80;;;;;;;17.02;95.16;100202.16;5569634;32;33646;-57
2022/09/30 13:33:41;;;;;;;3.58;2.00;;;;;;;17.04;96.21;100213.47;5569585;32;34211;-57
2022/09/30 13:36:56;;;;;;;4.78;2.00;;;;;;;17.06;94.99;100231.00;5569623;32;33726;-57
2022/09/30 13:40:03;;;;;;;2.70;2.30;;;;;;;17.10;92.88;100228.41;5569658;32;34447;-57
2022/09/30 13:43:13;;;;;;;5.25;2.47;;;;;;;17.08;91.94;100238.78;5569576;32;33303;-57
2022/09/30 13:46:15;;;;;;;2.62;2.08;;;;;;;17.11;93.40;100241.63;5569658;32;33761;-57
2022/09/30 13:49:28;;;;;;;4.15;2.50;;;;;;;17.05;92.67;100247.53;5555693;32;33602;-57
2022/09/30 13:52:33;;;;;;;4.60;2.47;;;;;;;17.01;91.72;100241.19;5549979;32;33715;-57
2022/09/30 13:55:41;;;;;;;4.50;2.53;;;;;;;16.96;92.64;100255.72;5550180;32;34480;-57
2022/09/30 13:59:17;;;;;;;4.00;2.37;;;;;;;16.98;92.41;100244.56;5550028;32;33703;-57
2022/09/30 14:02:43;;;;;;;4.10;2.42;;;;;;;16.95;94.35;100243.28;5549469;32;33784;-57
2022/09/30 14:05:48;;;;;;;4.95;2.67;;;;;;;16.99;93.52;100232.63;5552287;32;33602;-57
2022/09/30 14:09:29;;;;;;;2.37;2.03;;;;;;;16.95;93.97;100227.03;5569423;32;33634;-57
2022/09/30 14:12:48;;;;;;;6.10;2.78;;;;;;;16.92;90.42;100216.91;5569616;32;33647;-57
2022/09/30 14:16:43;;;;;;;4.90;2.20;;;;;;;16.90;92.44;100213.72;5569711;32;33650;-57
2022/09/30 14:20:13;;;;;;;3.47;2.10;;;;;;;16.94;91.68;100219.25;5527472;31;33977;-57
2022/09/30 14:23:19;;;;;;;2.33;2.10;;;;;;;16.88;90.19;100232.19;5568571;32;33837;-57
2022/09/30 14:26:45;;;;;;;3.42;2.10;;;;;;;16.83;92.07;100232.38;5569440;32;33598;-57
2022/09/30 14:29:55;;;;;;;3.87;2.00;;;;;;;16.83;89.88;100235.88;5569438;32;33700;-57
2022/09/30 14:33:02;;;;;;;2.28;1.83;;;;;;;16.83;90.85;100238.59;5567005;32;33646;-57
2022/09/30 14:36:07;;;;;;;;;;;;;;;16.83;91.34;100245.91;5566169;32;33890;-57
2022/09/30 14:39:27;;;;;;;2.25;1.92;;;;;;;16.84;91.66;100242.09;5567933;32;33976;-57
2022/09/30 14:42:37;;;;;;;15.63;2.62;;;;;;;16.86;90.61;100235.22;5568106;32;33771;-57
2022/09/30 14:45:43;;;;;;;2.20;1.90;;;;;;;16.95;89.14;100239.78;5568685;32;33473;-57
2022/09/30 14:48:47;;;;;;;2.47;2.05;;;;;;;16.91;89.38;100232.31;5569016;32;34345;-57
2022/09/30 14:51:49;;;;;;;3.67;1.92;;;;;;;16.90;88.45;100236.16;5569326;32;33925;-57
2022/09/30 14:54:52;;;;;;;2.05;1.70;;;;;;;17.01;89.23;100239.28;5569290;32;33171;-57
2022/09/30 14:58:17;;;;;;;3.03;1.80;;;;;;;16.97;92.22;100246.47;5568827;32;33702;-57
2022/09/30 15:01:24;;;;;;;;;;;;;;;16.97;91.50;100245.69;5569492;32;34263;-57
2022/09/30 15:04:33;;;;;;;2.03;1.83;;;;;;;16.93;91.26;100242.84;5568217;32;34761;-57
2022/09/30 15:07:39;;;;;;;2.62;2.00;;;;;;;16.91;91.23;100253.19;5568837;32;33666;-57
2022/09/30 15:10:50;;;;;;;2.05;1.80;;;;;;;16.91;91.88;100258.59;5569282;32;34428;-57
2022/09/30 15:13:58;;;;;;;2.70;2.00;;;;;;;16.93;92.55;100255.59;5569192;32;34342;-57
